weather.gov     
National Weather Service

Terminal Aerodrome Forecast
NWS Homepage
This page is being discontinued on March 12, 2014.
The same data is available at this site. Please update your bookmarks.
Thank you, and we apologize for the inconvenience.
Please send an email to SR-SRH.Webmaster@noaa.gov with any concerns.


Current Version
Previous Version:    01  02  03  04  05  06  07  08  09  10  11  12  13  14  15  16  17  18  19  20  21  22  23  24  25  
[Printable]
018
FTUS44 KMEG 180500
TAFMKL
TAF
KMKL 180530Z 1806/1906 VRB02KT P6SM FEW060 SCT250
     FM181000 08005KT P6SM VCSH BKN035 OVC100
     FM181600 06006KT P6SM FEW035 BKN060
     FM182100 03005KT P6SM FEW035 SCT250
     FM190100 04003KT P6SM SKC=


U.S. Dept. of Commerce
NOAA National Weather Service
1325 East West Highway
Silver Spring, MD 20910
E-mail: w-nws.webmaster@noaa.gov
Page last modified: May 16, 2007
NATIONAL WEATHER SERVICE: for Safety, for Work, for Fun - FOR LIFE